Terminal Aerodrome Forecast
Issued by NWS

Home | Current Version | Previous Version | Text Only | Print | Product List | Glossary On
Versions: 1 2 3 4 5 6 7 8 9 10 11 12 13 14 15 16 17 18
000
FTUS42 TJSJ 191738
TAFIST
TAF
TIST 191738Z 1918/2018 11015G25KT 3SM HZ SCT020
     FM192200 10010KT P6SM FEW025
     FM201400 11013KT P6SM FEW030=

USA.gov is the U.S. government's official web portal to all federal, state and local government web resources and services.